Strona główna
METAR-TAF:

METAR-TAF

Lotnisko :

Dayton, Ohio, Stany Zjednoczone

Szerokość geograficzna: 39-35-20N, Długość geograficzna: 084-13-29W, wysokość: 292 m

Aktualna obserwacja pogody

Raport powstał 55 minut temu, godzina 06:53 UTC
Wiatr 6 kt od południowy wschód
Temperatura 22°C
Wilgotność 78%
Ciśnienie 1014 hPa
Widzialność: 16.1 km
Zachmurzenie całkowite na wysokości 9000 ft

METAR: KMGY 280653Z AUTO 13006KT 10SM OVC090 22/18 A2995 RMK AO2 SLP132 T02220183

czas: 03:48 (07:48 UTC)


TAF: brakujący

Obserwacja i prognoza pogody dla ponad 4000 lotnisk (raport METAR i TAF).

Dostępne stacje oznaczono żółtymi i czerwonymi punktami na mapie.

Najedź kursorem aby zobaczyć nazwę stacji.

Kliknij aby zobaczyć obserwacje i prognozy pogody.

Aby zmienić mapę: kliknij na zielony przycisk z czarnym krzyżykiem, aby powiększyć; na zielony przycisk z myślnikiem, aby pomniejszyć; na zielone strzałki, aby przejść do map sąsiednich.


METAR-TAF: